Time;durP1;ratioP1;P1;durP2;ratioP2;P2;SDS_P1;SDS_P2;PMS_P1;PMS_P2;Temp;Humidity;BMP_temperature;BMP_pressure;BME280_temperature;BME280_humidity;BME280_pressure;Samples;Min_cycle;Max_cycle;Signal;HPM_P1;HPM_P2
2021/05/18 00:01:07;;;;;;;;;;;;;;;12.42;76.25;97931.02;1693521;84;20523;-93
2021/05/18 00:03:34;;;;;;;;;;;;;;;12.38;75.99;97930.80;1691256;85;20316;-94
2021/05/18 00:06:02;;;;;;;;;;;;;;;12.24;77.56;97937.17;1691224;85;20200;-93
2021/05/18 00:08:31;;;;;;;;;;;;;;;12.18;77.85;97937.48;1736820;82;20178;-93
2021/05/18 00:16:54;;;;;;;;;;;;;;;12.12;78.08;97947.75;1721872;83;20199;-93
2021/05/18 00:19:22;;;;;;;;;;;;;;;12.10;79.15;97954.33;1720933;82;20205;-94
2021/05/18 00:21:49;;;;;;;;;;;;;;;12.04;79.64;97949.89;1721690;83;20183;-90
2021/05/18 00:24:15;;;;;;;;;;;;;;;12.03;79.58;97950.33;1757018;81;20169;-93
2021/05/18 00:26:42;;;;;;;;;;;;;;;12.08;79.03;97952.27;1739931;82;20169;-93
2021/05/18 00:29:08;;;;;;;;;;;;;;;12.00;79.42;97946.59;1739191;79;20206;-92
2021/05/18 00:31:35;;;;;;;;;;;;;;;12.01;79.13;97955.23;1740682;82;20280;-93
2021/05/18 00:34:03;;;;;;;;;;;;;;;12.07;78.71;97954.47;1740075;82;20185;-94
2021/05/18 00:36:29;;;;;;;;;;;;;;;12.09;78.25;97957.84;1816801;78;20158;-92
2021/05/18 00:38:55;;;;;;;;;;;;;;;12.03;78.85;97956.84;1829302;78;20186;-92
2021/05/18 00:41:21;;;;;;;;;;;;;;;12.06;78.18;97961.08;1829702;78;20241;-94
2021/05/18 00:43:48;;;;;;;;;;;;;;;12.05;79.19;97948.95;1807181;78;20647;-93
2021/05/18 00:46:14;;;;;;;;;;;;;;;11.98;79.63;97949.73;1839003;78;20181;-93
2021/05/18 00:48:40;;;;;;;;;;;;;;;11.98;79.29;97957.55;1828373;78;20226;-92
2021/05/18 00:51:30;;;;;;;;;;;;;;;12.03;78.62;97953.41;1828527;78;20206;-93
2021/05/18 00:54:21;;;;;;;;;;;;;;;11.99;78.87;97949.27;1730005;78;20169;-92
2021/05/18 00:59:19;;;;;;;;;;;;;;;11.93;79.14;97959.05;1733507;79;20168;-92
2021/05/18 01:01:45;;;;;;;;;;;;;;;11.92;78.91;97953.47;1734492;83;20242;-94
2021/05/18 01:04:14;;;;;;;;;;;;;;;11.88;79.29;97953.20;1738407;83;20195;-93
2021/05/18 01:07:00;;;;;;;;;;;;;;;11.86;79.77;97954.20;1736685;82;20224;-93
2021/05/18 01:09:26;;;;;;;;;;;;;;;11.83;79.54;97964.29;1733787;81;20217;-94
2021/05/18 01:11:52;;;;;;;;;;;;;;;11.72;80.79;97960.91;1752374;80;20217;-93
2021/05/18 01:14:19;;;;;;;;;;;;;;;11.70;81.33;97957.55;1783007;80;20589;-93
2021/05/18 01:16:48;;;;;;;;;;;;;;;11.69;82.12;97954.53;1782499;78;20510;-92
2021/05/18 01:19:21;;;;;;;;;;;;;;;11.60;83.41;97961.50;1751049;77;20336;-93
2021/05/18 01:21:48;;;;;;;;;;;;;;;11.54;83.92;97965.70;1700293;82;20157;-91
2021/05/18 01:24:17;;;;;;;;;;;;;;;11.49;84.23;97965.05;1703306;84;20188;-93
2021/05/18 01:26:46;;;;;;;;;;;;;;;11.49;84.18;97959.85;1730845;81;20175;-91
2021/05/18 01:32:07;;;;;;;;;;;;;;;11.32;85.76;97941.97;1672322;82;20620;-93
2021/05/18 01:34:55;;;;;;;;;;;;;;;11.37;85.34;97952.63;1677254;82;20233;-92
2021/05/18 01:37:21;;;;;;;;;;;;;;;11.33;85.56;97957.12;1690048;85;20163;-92
2021/05/18 01:40:03;;;;;;;;;;;;;;;11.27;85.05;97958.24;1685787;85;20311;-93
2021/05/18 01:45:13;;;;;;;;;;;;;;;11.25;85.21;97962.67;1689527;85;20146;-93
2021/05/18 01:47:41;;;;;;;;;;;;;;;11.24;84.69;97960.13;1726006;81;20162;-93
2021/05/18 01:50:11;;;;;;;;;;;;;;;11.23;85.57;97968.41;1714004;79;20188;-92
2021/05/18 01:52:37;;;;;;;;;;;;;;;11.19;85.52;97966.86;1740438;79;20233;-92
2021/05/18 01:55:04;;;;;;;;;;;;;;;11.23;84.67;97967.56;1731289;83;20191;-92
2021/05/18 01:57:32;;;;;;;;;;;;;;;11.25;84.14;97969.17;1761850;80;20176;-94
2021/05/18 02:00:46;;;;;;;;;;;;;;;11.24;84.41;97964.91;1739632;81;20185;-91
2021/05/18 02:03:25;;;;;;;;;;;;;;;11.07;85.06;97936.21;1684793;79;20160;-93
2021/05/18 02:05:56;;;;;;;;;;;;;;;11.20;85.43;97975.06;1708029;81;20161;-91
2021/05/18 02:08:57;;;;;;;;;;;;;;;11.23;84.35;97984.02;1641908;87;20193;-95
2021/05/18 02:11:25;;;;;;;;;;;;;;;11.21;84.48;97980.64;1685286;80;20199;-92
2021/05/18 02:13:54;;;;;;;;;;;;;;;11.25;84.44;97985.25;1678960;85;20186;-93
2021/05/18 02:19:20;;;;;;;;;;;;;;;11.24;83.75;97987.02;1713243;79;20198;-92
2021/05/18 02:28:08;;;;;;;;;;;;;;;11.20;84.21;97984.17;1776017;80;20175;-93
2021/05/18 02:30:38;;;;;;;;;;;;;;;11.19;84.75;97982.47;1714031;79;20536;-93
2021/05/18 02:33:19;;;;;;;;;;;;;;;11.18;84.61;97981.23;1713824;82;20226;-92
2021/05/18 02:36:16;;;;;;;;;;;;;;;11.10;84.92;97977.23;1687100;82;20182;-92
2021/05/18 02:38:45;;;;;;;;;;;;;;;11.05;85.29;97977.05;1735654;80;20144;-93
2021/05/18 02:41:33;;;;;;;;;;;;;;;11.02;84.72;97982.38;1774941;78;20179;-92
2021/05/18 02:44:11;;;;;;;;;;;;;;;11.07;84.43;97983.02;1722595;79;20162;-92
2021/05/18 02:49:23;;;;;;;;;;;;;;;11.01;84.56;97984.60;1673711;81;20192;-94
2021/05/18 02:51:53;;;;;;;;;;;;;;;10.96;84.74;97976.98;1767146;80;20160;-94
2021/05/18 02:54:26;;;;;;;;;;;;;;;10.95;84.62;97985.72;1718783;79;20186;-93
2021/05/18 02:59:32;;;;;;;;;;;;;;;10.94;84.76;97981.41;1674409;84;20311;-92
2021/05/18 03:02:00;;;;;;;;;;;;;;;10.73;85.03;97950.72;1709486;84;20204;-91
2021/05/18 03:04:28;;;;;;;;;;;;;;;10.92;84.95;97979.33;1678808;82;20174;-92
2021/05/18 03:06:56;;;;;;;;;;;;;;;10.89;85.60;97973.82;1714274;80;20246;-90
2021/05/18 03:09:26;;;;;;;;;;;;;;;10.88;85.50;97966.95;1715490;84;20145;-92
2021/05/18 03:18:08;;;;;;;;;;;;;;;10.86;85.96;97955.78;1730295;82;20211;-84
2021/05/18 03:20:35;;;;;;;;;;;;;;;10.78;85.77;97943.55;1732233;83;20180;-84
2021/05/18 03:23:01;;;;;;;;;;;;;;;10.88;85.24;97959.15;1733104;82;20163;-95
2021/05/18 03:25:28;;;;;;;;;;;;;;;10.92;85.24;97968.50;1747581;82;20287;-93
2021/05/18 03:27:57;;;;;;;;;;;;;;;10.89;85.35;97961.28;1749434;82;20185;-93
2021/05/18 03:30:36;;;;;;;;;;;;;;;10.88;85.54;97960.45;1716433;81;20168;-94
2021/05/18 03:35:50;;;;;;;;;;;;;;;11.01;85.21;97967.23;1734879;83;20231;-91
2021/05/18 03:38:23;;;;;;;;;;;;;;;11.02;85.03;97962.44;1734680;83;20168;-92
2021/05/18 03:40:52;;;;;;;;;;;;;;;11.05;85.20;97970.08;1707203;81;20377;-93
2021/05/18 04:20:51;;;;;;;;;;;;;;;11.55;85.07;97981.69;1658390;83;20244;-91
2021/05/18 04:51:57;;;;;;;;;;;;;;;11.52;85.66;97980.08;1754987;80;20207;-92
2021/05/18 05:00:13;;;;;;;;;;;;;;;11.49;84.95;97995.83;1686265;85;20209;-90
2021/05/18 05:08:17;;;;;;;;;;;;;;;11.67;84.29;97988.91;1696223;82;20191;-92
2021/05/18 05:16:11;;;;;;;;;;;;;;;12.06;83.05;97984.06;1721550;81;20248;-91
2021/05/18 05:18:37;;;;;;;;;;;;;;;12.11;82.68;97966.89;1740405;82;20146;-92
2021/05/18 05:21:04;;;;;;;;;;;;;;;12.13;81.61;97984.59;1740629;82;20685;-91
2021/05/18 05:23:30;;;;;;;;;;;;;;;12.13;82.21;97972.86;1735011;82;20200;-93
2021/05/18 05:25:56;;;;;;;;;;;;;;;12.21;82.20;97966.81;1710228;82;20205;-92
2021/05/18 05:28:23;;;;;;;;;;;;;;;12.37;81.51;97977.78;1705902;83;20161;-93
2021/05/18 05:31:05;;;;;;;;;;;;;;;12.39;81.41;97985.89;1681360;82;20163;-92
2021/05/18 05:33:55;;;;;;;;;;;;;;;12.41;81.75;97968.41;1695534;82;20206;-92
2021/05/18 05:36:21;;;;;;;;;;;;;;;12.37;80.84;97966.89;1686283;85;20514;-91
2021/05/18 05:38:48;;;;;;;;;;;;;;;12.41;80.38;97964.51;1674697;84;20159;-92
2021/05/18 05:41:28;;;;;;;;;;;;;;;12.14;80.03;97948.52;1666399;82;20248;-92
2021/05/18 05:43:54;;;;;;;;;;;;;;;12.21;80.43;97959.46;1673570;85;20180;-91
2021/05/18 05:46:21;;;;;;;;;;;;;;;12.21;79.91;97967.28;1685759;85;20188;-91
2021/05/18 05:48:52;;;;;;;;;;;;;;;12.25;81.00;97967.04;1698098;84;20208;-90
2021/05/18 05:51:15;;;;;;;;;;;;;;;12.33;81.12;97972.73;1681563;81;20153;-92
2021/05/18 05:53:42;;;;;;;;;;;;;;;12.32;80.92;97988.45;1678999;79;20225;-89
2021/05/18 05:56:08;;;;;;;;;;;;;;;12.31;80.44;97990.66;1657291;85;20194;-86
2021/05/18 05:58:36;;;;;;;;;;;;;;;12.24;80.89;97970.58;1679852;85;20213;-82
2021/05/18 06:03:51;;;;;;;;;;;;;;;12.31;81.27;97978.48;1644665;85;20219;-88
2021/05/18 06:06:25;;;;;;;;;;;;;;;12.42;81.14;97977.94;1725586;80;20104;-87
2021/05/18 06:47:32;;;;;;;;;;;;;;;12.91;74.52;97997.59;1647559;86;20195;-88
2021/05/18 06:52:55;;;;;;;;;;;;;;;12.92;74.54;97983.61;1657566;80;20286;-90
2021/05/18 06:55:42;;;;;;;;;;;;;;;13.02;74.44;97985.28;1699386;80;20277;-93
2021/05/18 06:58:14;;;;;;;;;;;;;;;13.12;73.99;97988.25;1740763;82;20171;-83
2021/05/18 07:00:42;;;;;;;;;;;;;;;13.16;73.52;97983.25;1740861;81;20711;-86
2021/05/18 07:03:13;;;;;;;;;;;;;;;13.21;72.79;97977.77;1733506;80;20184;-87
2021/05/18 07:11:38;;;;;;;;;;;;;;;13.49;72.45;97988.92;1699885;84;20179;-86
2021/05/18 07:17:25;;;;;;;;;;;;;;;13.53;72.45;97978.69;1718524;81;20330;-93
2021/05/18 07:22:32;;;;;;;;;;;;;;;13.34;71.88;97991.89;1704763;78;20157;-93
2021/05/18 07:24:59;;;;;;;;;;;;;;;13.46;72.15;97994.30;1705537;84;20191;-93
2021/05/18 07:48:17;;;;;;;;;;;;;;;13.53;69.37;98010.86;1725701;80;20216;-88
2021/05/18 08:05:52;;;;;;;;;;;;;;;13.71;69.32;98031.21;1707035;80;21252;31
2021/05/18 08:14:28;;;;;;;;;;;;;;;13.83;68.62;98015.80;1675858;80;20212;31
2021/05/18 09:38:07;;;;;;;;;;;;;;;13.55;73.40;98094.34;1751966;80;20165;-95
2021/05/18 10:22:23;;;;;;;;;;;;;;;14.11;69.87;98112.63;1691409;80;20120;-94
2021/05/18 10:45:02;;;;;;;;;;;;;;;13.90;66.95;98131.61;1710623;80;20230;-91
2021/05/18 10:50:42;;;;;;;;;;;;;;;13.85;67.99;98121.05;1736671;80;20201;-93
2021/05/18 10:56:17;;;;;;;;;;;;;;;13.80;68.68;98140.04;1688350;80;20601;-92
2021/05/18 11:38:15;;;;;;;;;;;;;;;14.04;66.56;98202.73;1724085;80;20203;-94
2021/05/18 11:41:04;;;;;;;;;;;;;;;13.97;67.40;98211.01;1711951;81;20176;-94
2021/05/18 11:55:23;;;;;;;;;;;;;;;14.36;68.59;98216.30;1716440;80;20203;-96
2021/05/18 12:33:48;;;;;;;;;;;;;;;14.72;70.15;98246.16;1702281;80;20198;-94
2021/05/18 12:48:13;;;;;;;;;;;;;;;14.41;70.11;98243.90;1707325;82;20162;-92
2021/05/18 12:51:16;;;;;;;;;;;;;;;14.45;69.18;98238.88;1677574;81;20339;-92
2021/05/18 12:56:55;;;;;;;;;;;;;;;14.41;69.42;98245.20;1714477;81;20133;-85
2021/05/18 13:17:56;;;;;;;;;;;;;;;14.16;69.46;98264.44;1675591;82;20134;-94
2021/05/18 13:47:42;;;;;;;;;;;;;;;14.13;71.26;98272.82;1767601;80;20141;-95
2021/05/18 13:53:10;;;;;;;;;;;;;;;14.20;69.76;98279.03;1657111;83;21627;-94
2021/05/18 13:55:36;;;;;;;;;;;;;;;14.15;70.05;98287.13;1763224;81;20234;-92
2021/05/18 13:58:03;;;;;;;;;;;;;;;14.19;68.97;98287.81;1763496;82;20160;-95
2021/05/18 14:00:29;;;;;;;;;;;;;;;14.19;69.10;98282.59;1763807;82;20137;-94
2021/05/18 14:02:58;;;;;;;;;;;;;;;14.18;69.02;98275.66;1763405;82;20188;-92
2021/05/18 14:08:34;;;;;;;;;;;;;;;14.13;70.42;98275.44;1696637;84;20193;-92
2021/05/18 14:11:20;;;;;;;;;;;;;;;13.99;70.84;98281.86;1703228;83;20167;-93
2021/05/18 14:13:52;;;;;;;;;;;;;;;13.88;71.14;98285.00;1739643;81;20186;-91
2021/05/18 14:19:37;;;;;;;;;;;;;;;13.80;71.79;98299.39;1703711;83;20205;-95
2021/05/18 14:22:03;;;;;;;;;;;;;;;13.71;72.27;98300.25;1721235;83;20323;-93
2021/05/18 14:24:40;;;;;;;;;;;;;;;13.69;72.21;98299.48;1708814;83;20137;-93
2021/05/18 14:27:18;;;;;;;;;;;;;;;13.64;72.62;98308.00;1661570;82;20227;-92
2021/05/18 14:30:28;;;;;;;;;;;;;;;13.71;72.15;98310.70;1620928;88;20680;-88
2021/05/18 14:32:57;;;;;;;;;;;;;;;13.61;72.84;98308.17;1654055;84;20215;-85
2021/05/18 14:35:30;;;;;;;;;;;;;;;13.61;72.29;98326.89;1680512;82;20215;-91
2021/05/18 14:38:05;;;;;;;;;;;;;;;13.50;72.70;98315.21;1676955;85;20190;-92
2021/05/18 14:40:45;;;;;;;;;;;;;;;13.55;72.43;98324.14;1701870;81;20186;-91
2021/05/18 14:43:09;;;;;;;;;;;;;;;13.51;72.98;98314.30;1657690;83;20151;-89
2021/05/18 14:45:33;;;;;;;;;;;;;;;13.53;72.90;98322.07;1659122;86;20299;-92
2021/05/18 14:56:12;;;;;;;;;;;;;;;13.70;71.41;98336.42;1692453;83;20450;-90
2021/05/18 14:58:39;;;;;;;;;;;;;;;13.77;71.46;98338.72;1666246;85;20215;-92
2021/05/18 15:01:05;;;;;;;;;;;;;;;13.77;71.47;98323.05;1676804;82;20117;-86
2021/05/18 15:03:33;;;;;;;;;;;;;;;13.76;71.25;98343.11;1675509;82;20168;-86
2021/05/18 15:06:00;;;;;;;;;;;;;;;13.69;71.38;98347.80;1676090;83;20156;-86
2021/05/18 15:08:27;;;;;;;;;;;;;;;13.65;71.74;98358.02;1677557;83;20143;-89
2021/05/18 15:10:57;;;;;;;;;;;;;;;13.72;72.18;98354.16;1726705;83;20161;-91
2021/05/18 15:13:27;;;;;;;;;;;;;;;13.71;72.60;98344.66;1701388;82;20200;-91
2021/05/18 15:15:54;;;;;;;;;;;;;;;13.71;72.95;98340.73;1713177;83;20160;-90
2021/05/18 15:18:20;;;;;;;;;;;;;;;13.69;73.10;98341.74;1716015;83;20183;-90
2021/05/18 15:20:47;;;;;;;;;;;;;;;13.77;72.54;98333.50;1715088;83;20181;-90
2021/05/18 15:23:13;;;;;;;;;;;;;;;13.73;71.26;98331.52;1705553;83;20192;-91
2021/05/18 15:25:40;;;;;;;;;;;;;;;13.85;71.18;98334.82;1722801;83;20187;-90
2021/05/18 15:28:06;;;;;;;;;;;;;;;14.04;70.76;98345.16;1713376;82;20205;-88
2021/05/18 15:30:32;;;;;;;;;;;;;;;14.09;70.22;98339.25;1705967;83;20121;-87
2021/05/18 15:32:59;;;;;;;;;;;;;;;14.19;70.05;98343.55;1723656;81;20176;-88
2021/05/18 15:35:26;;;;;;;;;;;;;;;14.26;70.35;98340.98;1725430;83;20192;-87
2021/05/18 15:37:52;;;;;;;;;;;;;;;14.43;69.00;98320.50;1725384;82;20168;-86
2021/05/18 15:40:19;;;;;;;;;;;;;;;14.92;68.28;98323.55;1728920;83;20219;-86
2021/05/18 15:42:45;;;;;;;;;;;;;;;15.13;64.49;98321.53;1703175;83;20181;-86
2021/05/18 15:45:12;;;;;;;;;;;;;;;15.23;64.04;98326.63;1703387;84;20235;-86
2021/05/18 15:50:18;;;;;;;;;;;;;;;15.45;57.61;98330.65;1727450;82;20190;-88
2021/05/18 15:52:44;;;;;;;;;;;;;;;15.42;61.29;98342.59;1725679;82;20526;-89
2021/05/18 15:55:10;;;;;;;;;;;;;;;15.49;62.42;98343.95;1718764;83;20184;-92
2021/05/18 15:57:37;;;;;;;;;;;;;;;15.37;63.18;98352.03;1712216;82;20162;-89
2021/05/18 16:00:05;;;;;;;;;;;;;;;15.27;64.11;98346.94;1724175;82;20216;-88
2021/05/18 16:02:33;;;;;;;;;;;;;;;15.05;64.49;98349.91;1731957;82;20209;-85
2021/05/18 16:04:59;;;;;;;;;;;;;;;14.90;65.00;98348.52;1734558;82;20168;-85
2021/05/18 16:07:27;;;;;;;;;;;;;;;14.84;65.03;98346.25;1702475;83;20095;-86
2021/05/18 16:09:53;;;;;;;;;;;;;;;14.84;65.27;98361.95;1725691;83;20157;-84
2021/05/18 16:12:21;;;;;;;;;;;;;;;14.86;65.50;98351.38;1722847;83;20147;-86
2021/05/18 16:14:48;;;;;;;;;;;;;;;14.82;64.86;98358.56;1715297;83;20242;-85
2021/05/18 16:17:20;;;;;;;;;;;;;;;14.78;64.39;98369.27;1721213;82;20203;-90
2021/05/18 16:19:42;;;;;;;;;;;;;;;14.70;64.28;98369.67;1719699;83;20184;-86
2021/05/18 16:22:08;;;;;;;;;;;;;;;14.44;65.04;98379.73;1724255;83;20110;-86
2021/05/18 16:24:35;;;;;;;;;;;;;;;14.25;65.39;98385.52;1725228;83;20156;-86
2021/05/18 16:27:02;;;;;;;;;;;;;;;14.22;65.55;98384.36;1721959;83;20112;-87
2021/05/18 16:29:30;;;;;;;;;;;;;;;14.09;66.40;98395.92;1695222;83;20143;-87
2021/05/18 16:31:57;;;;;;;;;;;;;;;14.00;66.67;98394.59;1692584;84;20187;-86
2021/05/18 16:34:26;;;;;;;;;;;;;;;13.86;67.36;98403.59;1713203;84;20132;-86
2021/05/18 16:36:52;;;;;;;;;;;;;;;13.72;68.56;98397.27;1688542;84;20115;-83
2021/05/18 16:39:22;;;;;;;;;;;;;;;13.66;69.51;98392.34;1720334;81;20121;-81
2021/05/18 16:41:58;;;;;;;;;;;;;;;13.66;69.95;98389.73;1741415;82;20213;-85
2021/05/18 16:44:29;;;;;;;;;;;;;;;13.55;70.64;98390.73;1745150;82;20202;-82
2021/05/18 16:46:57;;;;;;;;;;;;;;;13.61;70.48;98390.88;1713823;83;20263;-81
2021/05/18 16:49:23;;;;;;;;;;;;;;;13.58;70.13;98391.04;1725663;82;20276;-85
2021/05/18 16:51:51;;;;;;;;;;;;;;;13.60;70.97;98394.42;1728181;82;20204;-85
2021/05/18 16:54:17;;;;;;;;;;;;;;;13.65;70.84;98398.51;1746734;82;20196;-85
2021/05/18 16:56:46;;;;;;;;;;;;;;;13.73;70.80;98401.59;1712409;83;20258;-84
2021/05/18 16:59:23;;;;;;;;;;;;;;;13.68;71.26;98401.42;1722000;83;20199;-85
2021/05/18 17:02:14;;;;;;;;;;;;;;;13.65;71.40;98408.11;1699981;82;20191;-87
2021/05/18 17:04:40;;;;;;;;;;;;;;;13.55;71.71;98399.01;1682755;84;20727;-93
2021/05/18 17:07:07;;;;;;;;;;;;;;;13.49;71.84;98404.93;1694235;84;20154;-87
2021/05/18 17:09:33;;;;;;;;;;;;;;;13.22;72.96;98402.29;1676890;85;20214;-85
2021/05/18 17:12:01;;;;;;;;;;;;;;;13.22;73.38;98407.05;1692061;84;20183;-91
2021/05/18 17:14:27;;;;;;;;;;;;;;;13.18;73.75;98417.70;1688005;84;20206;-85
2021/05/18 17:16:55;;;;;;;;;;;;;;;13.07;74.26;98414.27;1686511;85;20202;-84
2021/05/18 17:19:22;;;;;;;;;;;;;;;13.03;74.71;98412.72;1686025;84;20159;-85
2021/05/18 17:21:48;;;;;;;;;;;;;;;13.01;74.18;98411.95;1685624;79;20182;-85
2021/05/18 17:24:15;;;;;;;;;;;;;;;12.88;75.31;98415.12;1687233;80;20143;-86
2021/05/18 17:26:42;;;;;;;;;;;;;;;12.85;75.80;98420.92;1686181;83;20151;-84
2021/05/18 17:29:10;;;;;;;;;;;;;;;12.78;76.01;98421.67;1681097;85;20196;-85
2021/05/18 17:31:36;;;;;;;;;;;;;;;12.73;76.63;98424.50;1685933;82;20092;-86
2021/05/18 17:34:03;;;;;;;;;;;;;;;12.73;76.59;98418.41;1689806;84;20197;-93
2021/05/18 17:36:30;;;;;;;;;;;;;;;12.63;77.57;98426.25;1694960;81;20192;-90
2021/05/18 17:39:19;;;;;;;;;;;;;;;12.63;77.33;98417.13;1721901;81;20177;-90
2021/05/18 17:41:46;;;;;;;;;;;;;;;12.56;77.61;98424.84;1711397;81;20284;-85
2021/05/18 17:44:12;;;;;;;;;;;;;;;12.49;78.06;98422.95;1718638;82;20200;-85
2021/05/18 17:46:39;;;;;;;;;;;;;;;12.52;75.99;98417.61;1719322;81;20101;-86
2021/05/18 17:49:06;;;;;;;;;;;;;;;12.43;77.13;98424.52;1689779;84;20166;-86
2021/05/18 17:51:34;;;;;;;;;;;;;;;12.36;77.56;98419.20;1716933;78;20133;-86
2021/05/18 17:54:03;;;;;;;;;;;;;;;12.37;77.37;98426.93;1720333;78;20152;-90
2021/05/18 17:56:41;;;;;;;;;;;;;;;12.38;77.28;98425.19;1732348;79;20142;-84
2021/05/18 17:59:08;;;;;;;;;;;;;;;12.35;77.48;98427.45;1740723;83;20142;-85
2021/05/18 18:01:34;;;;;;;;;;;;;;;12.36;77.66;98430.93;1703167;84;20125;-85
2021/05/18 18:04:01;;;;;;;;;;;;;;;12.33;77.63;98431.45;1702421;84;20182;-85
2021/05/18 18:06:28;;;;;;;;;;;;;;;12.30;77.68;98431.57;1727115;83;20134;-85
2021/05/18 18:08:56;;;;;;;;;;;;;;;12.26;77.97;98436.98;1736761;79;20213;-85
2021/05/18 18:11:22;;;;;;;;;;;;;;;12.23;78.41;98437.10;1731646;80;20187;-85
2021/05/18 18:13:49;;;;;;;;;;;;;;;12.20;77.84;98442.00;1736973;83;20103;-85
2021/05/18 18:16:15;;;;;;;;;;;;;;;12.21;78.05;98442.38;1736910;82;20182;-86
2021/05/18 18:18:42;;;;;;;;;;;;;;;12.19;78.77;98457.69;1736619;83;20183;-83
2021/05/18 18:21:09;;;;;;;;;;;;;;;12.18;78.21;98456.02;1746329;79;20649;-89
2021/05/18 18:23:38;;;;;;;;;;;;;;;12.16;79.09;98466.49;1768387;80;20124;-84
2021/05/18 18:26:07;;;;;;;;;;;;;;;12.13;78.75;98464.84;1754901;81;20248;-83
2021/05/18 18:28:38;;;;;;;;;;;;;;;12.13;78.43;98457.48;1768697;81;20136;-85
2021/05/18 18:31:08;;;;;;;;;;;;;;;12.09;78.23;98464.58;1723773;82;20190;-85
2021/05/18 18:33:36;;;;;;;;;;;;;;;12.06;77.65;98459.51;1750280;81;20216;-86
2021/05/18 18:36:07;;;;;;;;;;;;;;;12.05;77.27;98461.70;1766038;81;20220;-84
2021/05/18 18:38:36;;;;;;;;;;;;;;;12.04;77.64;98466.54;1767884;81;20141;-85
2021/05/18 18:41:11;;;;;;;;;;;;;;;11.99;77.72;98476.29;1744581;81;20155;-86
2021/05/18 18:43:38;;;;;;;;;;;;;;;11.97;77.94;98479.88;1719806;84;20188;-85
2021/05/18 18:46:13;;;;;;;;;;;;;;;11.92;77.76;98477.00;1750864;80;20211;-85
2021/05/18 18:48:52;;;;;;;;;;;;;;;11.93;77.64;98483.05;1723951;81;20149;-85
2021/05/18 18:51:29;;;;;;;;;;;;;;;11.88;77.98;98492.33;1719344;81;21710;-85
2021/05/18 18:53:59;;;;;;;;;;;;;;;11.87;78.24;98496.30;1728609;81;20214;-86
2021/05/18 18:56:27;;;;;;;;;;;;;;;11.83;78.48;98490.35;1748603;81;20104;-86
2021/05/18 18:59:00;;;;;;;;;;;;;;;11.86;78.25;98497.22;1751868;81;20244;-85
2021/05/18 19:01:34;;;;;;;;;;;;;;;11.85;78.33;98500.25;1771074;81;20113;-85
2021/05/18 19:04:04;;;;;;;;;;;;;;;11.79;78.37;98501.80;1770591;81;20121;-85
2021/05/18 19:14:43;;;;;;;;;;;;;;;11.67;78.45;98509.64;1710405;83;20178;-90
2021/05/18 19:17:10;;;;;;;;;;;;;;;11.70;78.03;98504.78;1733285;80;20873;-84
2021/05/18 19:19:37;;;;;;;;;;;;;;;11.70;77.80;98513.44;1706913;83;20182;-86
2021/05/18 19:22:04;;;;;;;;;;;;;;;11.71;77.83;98518.19;1666215;80;20181;-88
2021/05/18 19:24:30;;;;;;;;;;;;;;;11.71;77.76;98518.19;1654787;85;20179;-86
2021/05/18 19:26:57;;;;;;;;;;;;;;;11.72;77.49;98519.44;1667308;81;20117;-86
2021/05/18 19:29:24;;;;;;;;;;;;;;;11.70;77.73;98514.73;1665645;81;20113;-86
2021/05/18 19:31:51;;;;;;;;;;;;;;;11.71;77.57;98522.93;1684654;81;20190;-90
2021/05/18 19:34:24;;;;;;;;;;;;;;;11.68;77.64;98516.55;1749627;79;20201;-85
2021/05/18 19:36:57;;;;;;;;;;;;;;;11.67;77.90;98526.56;1760772;79;20191;-88
2021/05/18 19:49:54;;;;;;;;;;;;;;;11.67;78.48;98529.16;1713993;79;20181;-87
2021/05/18 19:52:13;;;;;;;;;;;;;;;11.70;77.87;98540.78;1718098;82;20188;-80
2021/05/18 19:54:39;;;;;;;;;;;;;;;11.62;78.59;98545.44;1717947;83;20162;-88
2021/05/18 19:57:19;;;;;;;;;;;;;;;11.62;78.47;98549.34;1707153;83;20210;-88
2021/05/18 20:08:21;;;;;;;;;;;;;;;11.61;77.00;98559.81;1691257;81;20110;-85
2021/05/18 20:21:40;;;;;;;;;;;;;;;11.66;77.40;98572.21;1699141;81;20231;-84
2021/05/18 20:24:05;;;;;;;;;;;;;;;11.63;78.57;98574.45;1700058;82;20186;-85
2021/05/18 20:26:32;;;;;;;;;;;;;;;11.67;78.05;98570.83;1700555;83;20178;-83
2021/05/18 20:28:58;;;;;;;;;;;;;;;11.69;78.27;98570.31;1701686;83;20097;-84
2021/05/18 20:31:25;;;;;;;;;;;;;;;11.73;77.93;98561.94;1683522;81;20160;-83
2021/05/18 20:34:07;;;;;;;;;;;;;;;11.70;78.31;98559.47;1690581;85;20119;-84
2021/05/18 20:39:12;;;;;;;;;;;;;;;11.62;78.28;98551.95;1727371;83;20151;-83
2021/05/18 20:41:30;;;;;;;;;;;;;;;11.67;78.47;98572.59;1701530;83;20226;-84
2021/05/18 20:44:00;;;;;;;;;;;;;;;11.66;77.83;98574.81;1696648;80;20154;-86
2021/05/18 20:46:28;;;;;;;;;;;;;;;11.64;78.55;98574.87;1703688;84;20165;-83
2021/05/18 20:48:54;;;;;;;;;;;;;;;11.63;78.62;98582.73;1707633;84;20172;-84
2021/05/18 20:51:21;;;;;;;;;;;;;;;11.63;77.28;98583.56;1699389;83;20183;-85
2021/05/18 20:53:47;;;;;;;;;;;;;;;11.58;77.98;98576.41;1700602;81;20134;-83
2021/05/18 20:56:13;;;;;;;;;;;;;;;11.50;79.99;98571.94;1669301;84;20173;-84
2021/05/18 20:58:40;;;;;;;;;;;;;;;11.51;80.88;98577.52;1686624;82;20151;-84
2021/05/18 21:01:06;;;;;;;;;;;;;;;11.50;80.09;98570.64;1696929;81;20209;-85
2021/05/18 21:03:32;;;;;;;;;;;;;;;11.44;81.39;98567.80;1699421;80;20171;-84
2021/05/18 21:06:01;;;;;;;;;;;;;;;11.49;80.24;98571.52;1699920;83;20218;-84
2021/05/18 21:08:37;;;;;;;;;;;;;;;11.48;81.25;98565.48;1701282;83;20754;-84
2021/05/18 21:13:47;;;;;;;;;;;;;;;11.49;81.07;98568.92;1701027;80;20154;-85
2021/05/18 21:16:03;;;;;;;;;;;;;;;11.51;80.64;98571.02;1698064;84;20162;-84
2021/05/18 21:18:29;;;;;;;;;;;;;;;11.48;81.10;98562.88;1697448;83;20205;-84
2021/05/18 21:20:56;;;;;;;;;;;;;;;11.46;81.29;98563.39;1699810;83;20201;-84
2021/05/18 21:23:23;;;;;;;;;;;;;;;11.41;80.79;98559.25;1702279;83;20287;-84
2021/05/18 21:25:50;;;;;;;;;;;;;;;11.43;81.64;98563.48;1701349;84;20222;-83
2021/05/18 21:28:16;;;;;;;;;;;;;;;11.42;81.62;98560.50;1696063;82;20166;-84
2021/05/18 21:30:43;;;;;;;;;;;;;;;11.40;81.42;98561.02;1697104;83;20182;-82
2021/05/18 21:33:10;;;;;;;;;;;;;;;11.35;81.82;98572.88;1696183;85;20154;-80
2021/05/18 21:35:36;;;;;;;;;;;;;;;11.31;80.95;98570.45;1698685;83;20243;-84
2021/05/18 21:38:04;;;;;;;;;;;;;;;11.27;78.76;98572.77;1688894;84;20277;-85
2021/05/18 21:40:36;;;;;;;;;;;;;;;11.21;79.65;98578.20;1692498;84;20162;-84
2021/05/18 21:43:02;;;;;;;;;;;;;;;11.13;81.31;98578.01;1693189;85;20186;-84
2021/05/18 21:45:30;;;;;;;;;;;;;;;11.05;83.54;98583.94;1695076;85;20178;-85
2021/05/18 21:47:56;;;;;;;;;;;;;;;11.01;82.21;98580.20;1707055;80;20261;-84
2021/05/18 21:50:23;;;;;;;;;;;;;;;10.95;83.77;98580.80;1709369;80;20147;-85
2021/05/18 21:52:50;;;;;;;;;;;;;;;10.92;82.72;98578.75;1704353;81;20115;-84
2021/05/18 21:55:17;;;;;;;;;;;;;;;10.90;82.89;98584.46;1676145;84;20166;-84
2021/05/18 21:57:45;;;;;;;;;;;;;;;10.73;82.81;98561.20;1717870;83;20134;-85
2021/05/18 22:00:16;;;;;;;;;;;;;;;10.84;81.45;98583.37;1699984;80;20107;-85
2021/05/18 22:02:45;;;;;;;;;;;;;;;10.81;81.98;98589.53;1698851;85;20096;-84
2021/05/18 22:05:13;;;;;;;;;;;;;;;10.78;82.75;98593.53;1702276;83;20150;-84
2021/05/18 22:07:41;;;;;;;;;;;;;;;10.76;82.53;98599.23;1703605;79;20211;-82
2021/05/18 22:10:14;;;;;;;;;;;;;;;10.72;82.84;98597.64;1700763;84;20181;-83
2021/05/18 22:28:36;;;;;;;;;;;;;;;10.23;87.68;98610.92;1764152;79;20159;-84
2021/05/18 22:31:04;;;;;;;;;;;;;;;10.19;87.12;98614.52;1754079;79;20159;-86
2021/05/18 22:33:31;;;;;;;;;;;;;;;10.12;87.49;98609.48;1753744;80;20176;-84
2021/05/18 22:35:58;;;;;;;;;;;;;;;10.10;86.29;98609.97;1729800;79;20167;-88
2021/05/18 22:38:32;;;;;;;;;;;;;;;10.05;87.64;98614.48;1718159;82;20135;-85
2021/05/18 22:40:59;;;;;;;;;;;;;;;10.02;86.82;98609.36;1717875;82;20127;-85
2021/05/18 22:43:25;;;;;;;;;;;;;;;9.92;89.76;98600.16;1718242;82;20493;-85
2021/05/18 22:45:52;;;;;;;;;;;;;;;9.92;87.79;98596.27;1713135;82;20159;-85
2021/05/18 22:48:19;;;;;;;;;;;;;;;9.87;88.66;98594.27;1689456;82;20182;-84
2021/05/18 22:50:46;;;;;;;;;;;;;;;9.83;89.46;98596.53;1739453;80;20095;-88
2021/05/18 22:53:12;;;;;;;;;;;;;;;9.80;89.82;98605.27;1756379;79;20227;-88
2021/05/18 22:55:38;;;;;;;;;;;;;;;9.75;90.51;98597.63;1778550;79;20597;-87